createdAt,value
2022-11-17T00:00:25.335Z,25.8
2022-11-17T00:06:04.578Z,25.7
2022-11-17T00:11:42.574Z,25.5
2022-11-17T00:16:56.343Z,28
2022-11-17T00:22:33.403Z,31
2022-11-17T00:27:55.557Z,28
2022-11-17T00:33:17.715Z,26.2
2022-11-17T00:38:25.293Z,25.8
2022-11-17T00:44:02.796Z,25.8
2022-11-17T00:48:54.446Z,25.6
2022-11-17T00:54:02.126Z,25.1
2022-11-17T00:59:25.269Z,29.6
2022-11-17T01:04:32.034Z,30.3
2022-11-17T01:09:55.530Z,26.9
2022-11-17T01:15:17.192Z,26
2022-11-17T01:20:55.240Z,25.8
2022-11-17T01:25:46.995Z,25.6
2022-11-17T01:30:53.994Z,25.6
2022-11-17T01:35:45.918Z,26.8
2022-11-17T01:41:07.376Z,30.3
2022-11-17T01:46:30.591Z,29.4
2022-11-17T01:51:37.167Z,26.6
2022-11-17T01:56:58.446Z,25.9
2022-11-17T02:02:22.344Z,25.8
2022-11-17T02:07:59.999Z,25.7
2022-11-17T02:13:37.715Z,25.5
2022-11-17T02:19:10.580Z,29.1
2022-11-17T02:24:02.338Z,31.2
2022-11-17T02:29:26.341Z,27.3
2022-11-17T02:34:49.687Z,26.1
2022-11-17T02:40:11.544Z,25.8
2022-11-17T02:45:18.749Z,25.7
2022-11-17T02:50:45.101Z,25.6
2022-11-17T02:56:08.704Z,26.6
2022-11-17T03:01:14.670Z,30.4
2022-11-17T03:06:38.477Z,29.2
2022-11-17T03:12:17.527Z,26.4
2022-11-17T03:17:54.491Z,25.9
2022-11-17T03:23:33.074Z,25.7
2022-11-17T03:29:11.143Z,25.6
2022-11-17T03:34:51.025Z,25.4
2022-11-17T03:40:35.877Z,30.3
2022-11-17T03:45:58.289Z,29.3
2022-11-17T03:50:49.163Z,26.4
2022-11-17T03:56:28.382Z,25.9
2022-11-17T04:01:50.103Z,25.7
2022-11-17T04:07:12.345Z,25.6
2022-11-17T04:12:53.048Z,25.4
2022-11-17T04:18:32.056Z,29.4
2022-11-17T04:24:11.841Z,30.4
2022-11-17T04:29:34.563Z,26.8
2022-11-17T04:35:12.301Z,26
2022-11-17T04:40:34.089Z,25.8
2022-11-17T04:46:12.841Z,25.6
2022-11-17T04:51:51.019Z,25.4
2022-11-17T04:57:18.086Z,29.3
2022-11-17T05:02:43.879Z,31.4
2022-11-17T05:08:22.250Z,27.1
2022-11-17T05:13:59.382Z,26.1
2022-11-17T05:19:25.169Z,25.8
2022-11-17T05:24:47.157Z,25.6
2022-11-17T05:30:24.269Z,25.4
2022-11-17T05:36:07.884Z,28.6
2022-11-17T05:41:46.115Z,31.6
2022-11-17T05:47:13.083Z,30.9
2022-11-17T05:52:40.227Z,27.1
2022-11-17T05:58:02.038Z,26.1
2022-11-17T06:03:11.687Z,27.9
2022-11-17T06:08:41.612Z,31.5
2022-11-17T06:14:20.175Z,30.7
2022-11-17T06:19:56.251Z,27.1
2022-11-17T06:25:35.735Z,26.4
2022-11-17T06:31:15.692Z,26.4
2022-11-17T06:36:37.668Z,31.3
2022-11-17T06:42:19.200Z,31.2
2022-11-17T06:47:57.726Z,27.1
2022-11-17T06:53:41.484Z,26.1
2022-11-17T06:59:05.029Z,25.8
2022-11-17T07:04:29.038Z,30.3
2022-11-17T07:10:07.167Z,33
2022-11-17T07:21:14.630Z,26.4
2022-11-17T07:26:43.080Z,25.9
2022-11-17T07:32:21.570Z,28.1
2022-11-17T07:38:00.051Z,30.6
2022-11-17T07:43:38.461Z,27
2022-11-17T07:49:20.412Z,26.1
2022-11-17T07:54:43.855Z,25.8
2022-11-17T08:00:28.421Z,25.7
2022-11-17T08:05:58.257Z,25.4
2022-11-17T08:11:06.903Z,25.2
2022-11-17T08:16:30.908Z,29.5
2022-11-17T08:21:56.561Z,30.2
2022-11-17T08:27:20.213Z,26.9
2022-11-17T08:32:42.441Z,26
2022-11-17T08:38:08.791Z,25.8
2022-11-17T08:43:51.527Z,25.6
2022-11-17T08:49:30.567Z,25.4
2022-11-17T08:54:54.311Z,25.3
2022-11-17T09:00:34.306Z,30.6
2022-11-17T09:06:12.214Z,28.9
2022-11-17T09:12:08.171Z,26.4
2022-11-17T09:17:49.920Z,25.8
2022-11-17T09:23:16.179Z,25.7
2022-11-17T09:28:40.633Z,25.5
2022-11-17T09:34:06.178Z,25.3
2022-11-17T09:39:30.416Z,29.6
2022-11-17T09:45:09.163Z,30.3
2022-11-17T09:51:25.892Z,26.8
2022-11-17T09:56:54.638Z,25.9
2022-11-17T10:02:33.487Z,25.7
2022-11-17T10:08:17.294Z,25.5
2022-11-17T10:13:56.967Z,25.3
2022-11-17T10:19:35.065Z,29.4
2022-11-17T10:25:14.502Z,30.3
2022-11-17T10:30:51.640Z,26.9
2022-11-17T10:36:36.540Z,26.1
2022-11-17T10:42:22.463Z,25.9
2022-11-17T10:48:10.338Z,25.7
2022-11-17T10:53:49.132Z,25.4
2022-11-17T10:59:27.746Z,29.6
2022-11-17T11:05:04.709Z,30.3
2022-11-17T11:10:48.809Z,26.9
2022-11-17T11:16:27.046Z,26.2
2022-11-17T11:22:08.115Z,25.9
2022-11-17T11:27:30.461Z,25.8
2022-11-17T11:33:13.918Z,25.6
2022-11-17T11:38:53.932Z,30
2022-11-17T11:44:37.542Z,29.8
2022-11-17T11:50:16.090Z,26.9
2022-11-17T11:55:47.147Z,26.3
2022-11-17T12:01:27.983Z,26.1
2022-11-17T12:07:07.057Z,25.9
2022-11-17T12:12:45.093Z,25.7
2022-11-17T12:18:29.428Z,29.8
2022-11-17T12:24:07.495Z,30
2022-11-17T12:29:47.557Z,26.9
2022-11-17T12:35:25.547Z,26.3
2022-11-17T12:40:48.603Z,26
2022-11-17T12:46:32.361Z,25.8
2022-11-17T12:52:46.702Z,25.6
2022-11-17T12:58:27.314Z,29.3
2022-11-17T13:04:04.886Z,30.4
2022-11-17T13:10:15.328Z,27
2022-11-17T13:15:58.688Z,26.2
2022-11-17T13:21:37.017Z,25.9
2022-11-17T13:26:45.122Z,25.8
2022-11-17T13:32:28.981Z,25.6
2022-11-17T13:38:11.214Z,25.3
2022-11-17T13:43:55.383Z,25.1
2022-11-17T13:49:34.500Z,24.9
2022-11-17T13:55:16.217Z,24.6
2022-11-17T14:00:56.050Z,24.4
2022-11-17T14:06:35.525Z,24.2
2022-11-17T14:12:13.358Z,24
2022-11-17T14:17:51.892Z,23.8
2022-11-17T14:23:38.064Z,23.6
2022-11-17T14:29:16.515Z,23.4
2022-11-17T14:35:04.530Z,23.3
2022-11-17T14:40:47.155Z,23.1
2022-11-17T14:46:13.045Z,23
2022-11-17T14:51:40.122Z,22.9
2022-11-17T14:56:47.504Z,22.8
2022-11-17T15:02:32.185Z,22.7
2022-11-17T15:08:46.012Z,22.6
2022-11-17T15:14:25.697Z,22.4
2022-11-17T15:19:47.890Z,22.3
2022-11-17T15:25:31.412Z,22.3
2022-11-17T15:30:55.116Z,22.2
2022-11-17T15:36:33.445Z,22.1
2022-11-17T15:42:20.163Z,22.1
2022-11-17T15:47:42.565Z,29.2
2022-11-17T15:53:52.300Z,33.5
2022-11-17T15:59:33.244Z,35.8
2022-11-17T16:05:11.583Z,36
2022-11-17T16:10:23.424Z,36.9
2022-11-17T16:16:00.915Z,36.9
2022-11-17T16:21:39.566Z,38.2
2022-11-17T16:27:17.582Z,36.8
2022-11-17T16:32:44.489Z,37.3
2022-11-17T16:38:12.552Z,38.4
2022-11-17T16:44:01.835Z,38.8
2022-11-17T16:49:39.766Z,37.1
2022-11-17T16:55:21.574Z,38.6
2022-11-17T17:00:43.951Z,39.3
2022-11-17T17:06:22.847Z,40.8
2022-11-17T17:11:46.310Z,43.3
2022-11-17T17:17:08.479Z,43.9
2022-11-17T17:22:31.122Z,44
2022-11-17T17:27:38.320Z,43.9
2022-11-17T17:33:17.887Z,43.5
2022-11-17T17:38:40.399Z,42.6
2022-11-17T17:44:18.684Z,43.6
2022-11-17T17:49:56.509Z,44
2022-11-17T17:55:03.025Z,43.9
2022-11-17T18:00:40.905Z,43.3
2022-11-17T18:06:05.267Z,43
2022-11-17T18:11:43.634Z,42.6
2022-11-17T18:17:25.518Z,42.3
2022-11-17T18:23:09.396Z,42.1
2022-11-17T18:28:54.354Z,42
2022-11-17T18:34:32.461Z,42.1
2022-11-17T18:40:10.223Z,42.3
2022-11-17T18:45:48.350Z,42.7
2022-11-17T18:51:50.776Z,42.4
2022-11-17T18:57:34.702Z,42.3
2022-11-17T19:02:57.605Z,42.4
2022-11-17T19:08:36.115Z,42.4
2022-11-17T19:14:14.168Z,42.3
2022-11-17T19:19:52.430Z,42.2
2022-11-17T19:25:16.759Z,42.4
2022-11-17T19:30:57.865Z,42.3
2022-11-17T19:36:16.087Z,42.3
2022-11-17T19:41:54.621Z,42.2
2022-11-17T19:47:37.937Z,42.2
2022-11-17T19:53:14.746Z,42.5
2022-11-17T19:58:37.343Z,42.4
2022-11-17T20:04:04.755Z,42.2
2022-11-17T20:09:11.805Z,42.6
2022-11-17T20:14:19.121Z,42.9
2022-11-17T20:20:26.780Z,43.1
2022-11-17T20:25:54.733Z,43.8
2022-11-17T20:31:38.472Z,43.9
2022-11-17T20:37:16.515Z,42.8
2022-11-17T20:42:55.978Z,39.2
2022-11-17T20:48:18.819Z,39.2
2022-11-17T20:53:41.205Z,38.1
2022-11-17T20:59:20.326Z,38.1
2022-11-17T21:04:43.557Z,37.8
2022-11-17T21:10:28.733Z,37.1
2022-11-17T21:15:51.116Z,36.5
2022-11-17T21:21:34.818Z,35.6
2022-11-17T21:27:12.596Z,34.3
2022-11-17T21:32:42.348Z,32.9
2022-11-17T21:38:10.241Z,31.6
2022-11-17T21:43:33.714Z,24.8
2022-11-17T21:49:10.864Z,24.6
2022-11-17T21:54:48.815Z,25
2022-11-17T22:00:11.392Z,25.3
2022-11-17T22:05:33.307Z,25.6
2022-11-17T22:10:57.973Z,25.7
2022-11-17T22:16:35.318Z,25.7
2022-11-17T22:22:13.310Z,25.7
2022-11-17T22:28:06.048Z,28.9
2022-11-17T22:33:46.841Z,29.8
2022-11-17T22:39:09.321Z,28.4
2022-11-17T22:44:54.176Z,27.9
2022-11-17T22:50:31.892Z,27.4
2022-11-17T22:56:09.076Z,27.1
2022-11-17T23:01:36.664Z,26.9
2022-11-17T23:06:58.991Z,26.9
2022-11-17T23:13:14.915Z,26.8
2022-11-17T23:18:37.424Z,26.7
2022-11-17T23:23:59.970Z,26.6
2022-11-17T23:29:38.287Z,27.1
2022-11-17T23:35:15.681Z,31.4
2022-11-17T23:40:56.977Z,28.8
2022-11-17T23:46:36.087Z,27.5
2022-11-17T23:52:14.163Z,27
2022-11-17T23:57:51.195Z,26.8
